createdAt,value
2018-03-26T00:00:05.011Z,76.10
2018-03-26T00:02:31.338Z,76.13
2018-03-26T00:04:57.572Z,66.37
2018-03-26T00:07:23.848Z,72.93
2018-03-26T00:09:50.840Z,79.73
2018-03-26T00:12:17.239Z,74.97
2018-03-26T00:14:43.474Z,65.53
2018-03-26T00:17:09.880Z,66.07
2018-03-26T00:19:36.873Z,68.97
2018-03-26T00:22:03.094Z,61.93
2018-03-26T00:24:29.443Z,69.67
2018-03-26T00:26:55.655Z,71.47
2018-03-26T00:29:21.889Z,71.37
2018-03-26T00:31:48.147Z,68.90
2018-03-26T00:34:14.398Z,69.00
2018-03-26T00:36:40.660Z,73.93
2018-03-26T00:39:07.717Z,76.83
2018-03-26T00:41:33.950Z,74.57
2018-03-26T00:44:00.202Z,80.40
2018-03-26T00:46:26.439Z,73.97
2018-03-26T00:48:52.675Z,68.87
2018-03-26T00:51:19.257Z,79.37
2018-03-26T00:53:46.194Z,78.97
2018-03-26T00:56:13.334Z,78.87
2018-03-26T00:58:39.613Z,77.63
2018-03-26T01:01:05.906Z,75.53
2018-03-26T01:03:32.942Z,70.77
2018-03-26T01:05:59.150Z,75.23
2018-03-26T01:08:25.673Z,84.30
2018-03-26T01:10:51.919Z,72.83
2018-03-26T01:13:18.298Z,82.63
2018-03-26T01:15:44.557Z,78.90
2018-03-26T01:18:10.864Z,72.33
2018-03-26T01:20:37.100Z,73.23
2018-03-26T01:23:03.402Z,73.27
2018-03-26T01:25:30.366Z,81.00
2018-03-26T01:27:56.573Z,76.37
2018-03-26T01:30:23.658Z,67.63
2018-03-26T01:32:49.864Z,62.00
2018-03-26T01:35:16.070Z,79.70
2018-03-26T01:37:43.373Z,77.07
2018-03-26T01:40:09.601Z,74.17
2018-03-26T01:42:35.831Z,64.77
2018-03-26T01:45:02.084Z,69.10
2018-03-26T01:50:01.234Z,73.87
2018-03-26T01:52:28.219Z,73.73
2018-03-26T01:54:54.614Z,71.57
2018-03-26T01:57:21.573Z,78.63
2018-03-26T01:59:47.868Z,83.50
2018-03-26T02:02:14.129Z,88.37
2018-03-26T02:04:41.148Z,82.90
2018-03-26T02:07:07.358Z,74.47
2018-03-26T02:09:33.616Z,87.20
2018-03-26T02:12:00.589Z,78.37
2018-03-26T02:14:26.845Z,65.43
2018-03-26T02:16:53.207Z,79.67
2018-03-26T02:19:19.463Z,69.90
2018-03-26T02:21:46.457Z,70.90
2018-03-26T02:24:12.727Z,63.03
2018-03-26T02:26:39.862Z,70.50
2018-03-26T02:29:06.073Z,73.67
2018-03-26T02:31:32.739Z,68.00
2018-03-26T02:33:58.976Z,68.17
2018-03-26T02:36:26.059Z,70.83
2018-03-26T02:38:52.295Z,69.00
2018-03-26T02:41:18.537Z,54.07
2018-03-26T02:43:44.762Z,58.37
2018-03-26T02:46:11.065Z,57.30
2018-03-26T02:48:37.288Z,61.70
2018-03-26T02:51:03.575Z,51.47
2018-03-26T02:53:29.793Z,49.70
2018-03-26T02:55:56.074Z,37.93
2018-03-26T02:58:23.063Z,42.33
2018-03-26T03:00:49.282Z,44.00
2018-03-26T03:03:19.721Z,48.10
2018-03-26T03:05:46.006Z,48.07
2018-03-26T03:08:13.083Z,42.50
2018-03-26T03:10:39.358Z,47.23
2018-03-26T03:13:05.598Z,52.27
2018-03-26T03:15:31.813Z,39.50
2018-03-26T03:17:58.078Z,44.10
2018-03-26T03:20:25.038Z,33.47
2018-03-26T03:22:51.330Z,52.73
2018-03-26T03:25:17.558Z,53.03
2018-03-26T03:27:43.818Z,42.23
2018-03-26T03:30:10.054Z,46.90
2018-03-26T03:32:36.321Z,47.53
2018-03-26T03:35:02.595Z,47.30
2018-03-26T03:37:29.621Z,41.33
2018-03-26T03:39:55.827Z,55.33
2018-03-26T03:42:22.108Z,50.57
2018-03-26T03:44:49.095Z,49.20
2018-03-26T03:47:15.439Z,45.70
2018-03-26T03:49:41.868Z,42.83
2018-03-26T03:52:08.157Z,48.67
2018-03-26T03:54:34.412Z,46.20
2018-03-26T03:57:00.705Z,41.13
2018-03-26T03:59:27.754Z,49.70
2018-03-26T04:01:54.753Z,48.07
2018-03-26T04:04:21.011Z,45.23
2018-03-26T04:06:47.225Z,41.67
2018-03-26T04:09:13.647Z,43.13
2018-03-26T04:11:39.886Z,48.80
2018-03-26T04:14:06.118Z,48.20
2018-03-26T04:16:33.059Z,45.67
2018-03-26T04:18:59.443Z,38.43
2018-03-26T04:21:25.641Z,42.63
2018-03-26T04:23:51.963Z,45.70
2018-03-26T04:26:18.322Z,40.87
2018-03-26T04:28:45.288Z,40.60
2018-03-26T04:31:11.515Z,48.53
2018-03-26T04:33:37.744Z,44.23
2018-03-26T04:36:03.957Z,45.03
2018-03-26T04:38:37.171Z,36.03
2018-03-26T04:41:03.461Z,31.40
2018-03-26T04:43:29.790Z,38.10
2018-03-26T04:45:55.989Z,39.37
2018-03-26T04:48:22.246Z,35.50
2018-03-26T04:50:48.490Z,34.30
2018-03-26T04:53:15.445Z,43.43
2018-03-26T04:55:42.397Z,35.13
2018-03-26T04:58:08.677Z,40.37
2018-03-26T05:00:34.998Z,36.30
2018-03-26T05:03:01.265Z,33.53
2018-03-26T05:05:28.242Z,37.73
2018-03-26T05:07:54.520Z,39.13
2018-03-26T05:10:20.721Z,31.30
2018-03-26T05:12:46.998Z,28.80
2018-03-26T05:15:13.206Z,25.23
2018-03-26T05:17:39.413Z,38.23
2018-03-26T05:20:05.665Z,30.60
2018-03-26T05:22:31.891Z,30.63
2018-03-26T05:24:58.126Z,32.20
2018-03-26T05:27:24.350Z,30.77
2018-03-26T05:29:50.597Z,29.73
2018-03-26T05:32:23.896Z,21.20
2018-03-26T05:34:50.118Z,19.80
2018-03-26T05:37:17.099Z,15.17
2018-03-26T05:39:43.319Z,19.30
2018-03-26T05:42:10.682Z,16.80
2018-03-26T05:44:36.906Z,21.47
2018-03-26T05:47:03.866Z,15.63
2018-03-26T05:49:30.143Z,17.63
2018-03-26T05:51:56.367Z,18.23
2018-03-26T05:54:22.622Z,14.30
2018-03-26T05:56:49.628Z,15.63
2018-03-26T05:59:15.898Z,16.90
2018-03-26T06:01:42.863Z,15.80
2018-03-26T06:04:09.837Z,19.60
2018-03-26T06:06:36.085Z,17.20
2018-03-26T06:09:02.434Z,19.90
2018-03-26T06:11:28.682Z,18.87
2018-03-26T06:13:55.666Z,16.90
2018-03-26T06:16:22.061Z,17.17
2018-03-26T06:18:49.055Z,25.40
2018-03-26T06:21:15.303Z,16.33
2018-03-26T06:23:41.612Z,16.23
2018-03-26T06:26:07.849Z,20.77
2018-03-26T06:28:34.212Z,18.10
2018-03-26T06:31:00.449Z,24.50
2018-03-26T06:33:26.690Z,25.10
2018-03-26T06:35:53.674Z,32.03
2018-03-26T06:41:23.723Z,18.20
2018-03-26T06:43:50.014Z,23.90
2018-03-26T06:46:16.963Z,17.87
2018-03-26T06:48:43.913Z,16.27
2018-03-26T06:51:10.542Z,15.30
2018-03-26T06:53:37.490Z,17.87
2018-03-26T06:56:03.694Z,11.63
2018-03-26T06:58:29.962Z,15.20
2018-03-26T07:00:56.241Z,12.60
2018-03-26T07:03:23.295Z,19.23
2018-03-26T07:05:49.658Z,14.17
2018-03-26T07:08:16.643Z,12.20
2018-03-26T07:10:42.941Z,15.60
2018-03-26T07:13:09.900Z,13.93
2018-03-26T07:15:36.115Z,16.37
2018-03-26T07:18:02.375Z,14.00
2018-03-26T07:20:28.590Z,13.83
2018-03-26T07:22:54.910Z,13.47
2018-03-26T07:25:21.119Z,14.57
2018-03-26T07:27:48.133Z,17.87
2018-03-26T07:30:15.089Z,13.53
2018-03-26T07:32:41.318Z,16.83
2018-03-26T07:35:07.618Z,15.47
2018-03-26T07:37:33.855Z,12.90
2018-03-26T07:40:00.064Z,11.60
2018-03-26T07:44:59.284Z,7.67
2018-03-26T07:47:25.507Z,8.50
2018-03-26T07:49:51.726Z,11.80
2018-03-26T07:52:18.139Z,7.53
2018-03-26T07:54:45.077Z,8.40
2018-03-26T07:57:11.314Z,11.60
2018-03-26T07:59:38.261Z,8.33
2018-03-26T08:02:05.223Z,9.33
2018-03-26T08:04:31.466Z,6.60
2018-03-26T08:06:57.695Z,7.77
2018-03-26T08:09:23.904Z,9.23
2018-03-26T08:11:50.517Z,8.03
2018-03-26T08:14:16.801Z,8.73
2018-03-26T08:16:43.054Z,7.37
2018-03-26T08:19:09.352Z,7.07
2018-03-26T08:21:35.568Z,9.23
2018-03-26T08:24:01.818Z,8.33
2018-03-26T08:26:28.034Z,8.73
2018-03-26T08:28:54.457Z,8.20
2018-03-26T08:31:20.666Z,7.17
2018-03-26T08:33:47.614Z,9.20
2018-03-26T08:36:14.690Z,6.30
2018-03-26T08:38:40.922Z,7.03
2018-03-26T08:41:07.237Z,7.30
2018-03-26T08:43:33.452Z,6.10
2018-03-26T08:46:00.437Z,7.50
2018-03-26T08:48:26.634Z,9.13
2018-03-26T08:50:53.593Z,9.07
2018-03-26T08:53:19.917Z,8.57
2018-03-26T08:55:46.146Z,11.53
2018-03-26T08:58:12.446Z,9.80
2018-03-26T09:00:38.731Z,8.53
2018-03-26T09:03:05.062Z,10.50
2018-03-26T09:05:31.315Z,6.90
2018-03-26T09:07:57.677Z,6.73
2018-03-26T09:10:24.673Z,7.50
2018-03-26T09:12:50.936Z,7.20
2018-03-26T09:15:17.189Z,8.17
2018-03-26T09:17:44.271Z,7.20
2018-03-26T09:20:10.503Z,5.60
2018-03-26T09:22:36.778Z,7.03
2018-03-26T09:25:03.019Z,8.60
2018-03-26T09:27:29.274Z,8.87
2018-03-26T09:29:55.492Z,8.10
2018-03-26T09:32:22.440Z,11.40
2018-03-26T09:34:49.488Z,6.83
2018-03-26T09:37:15.678Z,8.70
2018-03-26T09:39:41.955Z,12.73
2018-03-26T09:42:08.190Z,5.97
2018-03-26T09:44:34.433Z,8.70
2018-03-26T09:47:01.004Z,11.97
2018-03-26T09:49:27.374Z,7.90
2018-03-26T09:51:54.409Z,8.37
2018-03-26T09:54:21.374Z,5.47
2018-03-26T09:56:47.742Z,8.63
2018-03-26T09:59:13.974Z,9.27
2018-03-26T10:01:46.391Z,6.40
2018-03-26T10:04:13.463Z,7.53
2018-03-26T10:06:40.386Z,10.57
2018-03-26T10:09:07.355Z,7.90
2018-03-26T10:11:33.571Z,5.80
2018-03-26T10:14:00.584Z,7.30
2018-03-26T10:16:27.338Z,8.40
2018-03-26T10:18:53.553Z,9.67
2018-03-26T10:21:19.791Z,8.23
2018-03-26T10:23:46.401Z,9.40
2018-03-26T10:26:12.606Z,5.43
2018-03-26T10:28:38.804Z,10.00
2018-03-26T10:31:05.789Z,9.00
2018-03-26T10:33:32.030Z,6.83
2018-03-26T10:35:58.307Z,9.00
2018-03-26T10:38:25.390Z,11.17
2018-03-26T10:40:51.620Z,9.03
2018-03-26T10:43:17.978Z,7.67
2018-03-26T10:45:44.196Z,7.93
2018-03-26T10:48:10.393Z,7.80
2018-03-26T10:50:36.621Z,12.13
2018-03-26T10:53:02.845Z,10.63
2018-03-26T10:55:29.785Z,11.27
2018-03-26T10:57:56.753Z,10.13
2018-03-26T11:00:23.374Z,9.20
2018-03-26T11:02:50.414Z,9.83
2018-03-26T11:05:17.359Z,9.03
2018-03-26T11:07:44.319Z,10.93
2018-03-26T11:10:10.530Z,12.37
2018-03-26T11:12:36.794Z,9.73
2018-03-26T11:15:03.386Z,10.47
2018-03-26T11:17:29.618Z,9.30
2018-03-26T11:19:56.649Z,9.30
2018-03-26T11:22:22.867Z,9.83
2018-03-26T11:24:49.083Z,10.13
2018-03-26T11:27:15.641Z,8.73
2018-03-26T11:29:41.889Z,9.77
2018-03-26T11:32:08.858Z,6.70
2018-03-26T11:34:35.083Z,7.43
2018-03-26T11:37:02.054Z,6.67
2018-03-26T11:39:28.274Z,10.97
2018-03-26T11:42:01.653Z,9.60
2018-03-26T11:44:27.878Z,10.43
2018-03-26T11:46:54.902Z,9.13
2018-03-26T11:49:21.124Z,8.90
2018-03-26T11:51:47.384Z,12.77
2018-03-26T11:54:14.347Z,8.67
2018-03-26T11:56:40.550Z,8.90
2018-03-26T11:59:07.582Z,7.80
2018-03-26T12:01:33.786Z,6.00
2018-03-26T12:04:00.013Z,11.63
2018-03-26T12:06:26.294Z,7.10
2018-03-26T12:08:52.573Z,13.03
2018-03-26T12:11:18.754Z,8.50
2018-03-26T12:13:44.982Z,9.17
2018-03-26T12:16:12.330Z,6.83
2018-03-26T12:18:39.278Z,6.90
2018-03-26T12:21:06.298Z,7.90
2018-03-26T12:23:45.008Z,8.67
2018-03-26T12:26:11.226Z,7.60
2018-03-26T12:28:49.949Z,8.60
2018-03-26T12:31:16.161Z,9.63
2018-03-26T12:33:55.026Z,8.70
2018-03-26T12:36:21.246Z,6.20
2018-03-26T12:38:47.466Z,7.73
2018-03-26T12:41:13.779Z,7.93
2018-03-26T12:43:40.009Z,6.93
2018-03-26T12:46:19.247Z,8.90
2018-03-26T12:48:45.594Z,7.10
2018-03-26T12:51:24.637Z,7.80
2018-03-26T12:53:50.934Z,9.57
2018-03-26T12:56:17.222Z,7.90
2018-03-26T12:58:46.272Z,8.27
2018-03-26T13:01:24.974Z,11.30
2018-03-26T13:03:51.235Z,6.50
2018-03-26T13:06:17.446Z,8.30
2018-03-26T13:08:44.010Z,5.67
2018-03-26T13:11:10.240Z,11.30
2018-03-26T13:13:36.509Z,9.63
2018-03-26T13:16:02.761Z,8.50
2018-03-26T13:18:29.042Z,9.97
2018-03-26T13:20:55.260Z,7.53
2018-03-26T13:23:21.465Z,11.10
2018-03-26T13:25:47.734Z,8.20
2018-03-26T13:28:14.751Z,8.30
2018-03-26T13:30:40.953Z,6.87
2018-03-26T13:33:07.161Z,7.80
2018-03-26T13:35:33.450Z,7.50
2018-03-26T13:37:59.700Z,8.83
2018-03-26T13:40:26.725Z,12.47
2018-03-26T13:42:59.850Z,9.40
2018-03-26T13:45:26.075Z,9.20
2018-03-26T13:47:53.045Z,9.90
2018-03-26T13:50:19.359Z,10.40
2018-03-26T13:52:45.569Z,6.43
2018-03-26T13:55:12.543Z,7.40
2018-03-26T14:00:11.859Z,7.40
2018-03-26T14:02:38.153Z,13.43
2018-03-26T14:05:04.410Z,7.53
2018-03-26T14:07:31.417Z,7.17
2018-03-26T14:10:09.946Z,8.80
2018-03-26T14:12:48.433Z,6.10
2018-03-26T14:15:26.921Z,7.90
2018-03-26T14:17:54.029Z,6.27
2018-03-26T14:20:20.254Z,6.40
2018-03-26T14:22:46.469Z,8.37
2018-03-26T14:25:12.705Z,11.70
2018-03-26T14:27:38.926Z,7.70
2018-03-26T14:30:05.159Z,7.97
2018-03-26T14:32:31.382Z,10.10
2018-03-26T14:35:10.003Z,7.40
2018-03-26T14:37:36.296Z,5.33
2018-03-26T14:40:02.540Z,4.57
2018-03-26T14:42:28.783Z,6.90
2018-03-26T14:44:54.999Z,6.37
2018-03-26T14:47:21.272Z,7.60
2018-03-26T14:49:47.582Z,5.60
2018-03-26T14:52:14.478Z,8.67
2018-03-26T14:54:40.708Z,6.47
2018-03-26T14:57:06.944Z,9.20
2018-03-26T14:59:33.222Z,5.77
2018-03-26T15:01:59.522Z,5.70
2018-03-26T15:04:25.914Z,12.90
2018-03-26T15:06:52.862Z,9.50
2018-03-26T15:09:20.144Z,6.13
2018-03-26T15:11:46.357Z,10.40
2018-03-26T15:14:12.570Z,6.93
2018-03-26T15:16:39.578Z,7.27
2018-03-26T15:19:05.797Z,6.17
2018-03-26T15:21:31.999Z,4.83
2018-03-26T15:23:58.208Z,5.60
2018-03-26T15:26:25.209Z,5.63
2018-03-26T15:28:51.879Z,6.90
2018-03-26T15:31:19.008Z,6.40
2018-03-26T15:33:45.206Z,5.10
2018-03-26T15:36:11.498Z,7.13
2018-03-26T15:38:37.720Z,6.03
2018-03-26T15:41:04.774Z,4.27
2018-03-26T15:43:31.740Z,7.03
2018-03-26T15:45:58.011Z,4.67
2018-03-26T15:48:24.452Z,9.80
2018-03-26T15:50:50.756Z,4.37
2018-03-26T15:53:16.960Z,5.13
2018-03-26T15:55:43.305Z,6.50
2018-03-26T15:58:10.056Z,6.47
2018-03-26T16:00:36.276Z,6.13
2018-03-26T16:03:08.549Z,7.80
2018-03-26T16:05:34.737Z,7.50
2018-03-26T16:08:01.775Z,9.47
2018-03-26T16:10:28.739Z,7.40
2018-03-26T16:12:55.789Z,5.67
2018-03-26T16:15:22.847Z,4.10
2018-03-26T16:17:49.063Z,4.43
2018-03-26T16:20:16.119Z,5.23
2018-03-26T16:22:43.071Z,4.90
2018-03-26T16:25:09.282Z,9.57
2018-03-26T16:27:36.742Z,5.47
2018-03-26T16:30:03.710Z,6.93
2018-03-26T16:32:29.914Z,6.83
2018-03-26T16:34:56.899Z,6.73
2018-03-26T16:37:23.117Z,4.37
2018-03-26T16:39:49.354Z,5.17
2018-03-26T16:42:24.000Z,4.93
2018-03-26T16:44:50.264Z,7.27
2018-03-26T16:47:16.581Z,6.03
2018-03-26T16:49:42.795Z,4.97
2018-03-26T16:52:09.004Z,7.47
2018-03-26T16:54:35.252Z,4.50
2018-03-26T16:57:01.598Z,6.07
2018-03-26T16:59:27.830Z,11.10
2018-03-26T17:01:54.124Z,5.87
2018-03-26T17:04:20.442Z,6.87
2018-03-26T17:06:46.654Z,8.33
2018-03-26T17:09:13.637Z,7.00
2018-03-26T17:11:39.839Z,6.50
2018-03-26T17:14:06.059Z,10.07
2018-03-26T17:16:32.266Z,8.30
2018-03-26T17:18:59.346Z,6.27
2018-03-26T17:21:25.576Z,11.23
2018-03-26T17:23:52.004Z,10.40
2018-03-26T17:26:18.251Z,9.63
2018-03-26T17:28:44.486Z,9.23
2018-03-26T17:31:10.719Z,10.50
2018-03-26T17:33:36.958Z,9.17
2018-03-26T17:36:03.203Z,8.47
2018-03-26T17:38:29.446Z,8.07
2018-03-26T17:40:55.687Z,7.27
2018-03-26T17:43:22.646Z,11.20
2018-03-26T17:45:48.933Z,5.17
2018-03-26T17:48:15.140Z,7.10
2018-03-26T17:50:41.435Z,10.13
2018-03-26T17:53:07.680Z,6.00
2018-03-26T17:55:33.938Z,8.60
2018-03-26T17:58:00.186Z,7.43
2018-03-26T18:00:26.430Z,7.80
2018-03-26T18:02:52.883Z,4.90
2018-03-26T18:05:19.891Z,9.30
2018-03-26T18:07:46.907Z,9.25
2018-03-26T18:10:13.288Z,5.60
2018-03-26T18:12:39.495Z,7.70
2018-03-26T18:15:05.794Z,5.53
2018-03-26T18:17:32.024Z,5.60
2018-03-26T18:19:58.239Z,8.00
2018-03-26T18:22:24.478Z,7.03
2018-03-26T18:24:50.736Z,6.40
2018-03-26T18:27:16.962Z,7.07
2018-03-26T18:29:43.284Z,8.50
2018-03-26T18:32:09.498Z,7.43
2018-03-26T18:34:35.726Z,8.13
2018-03-26T18:37:01.999Z,7.00
2018-03-26T18:39:28.226Z,8.23
2018-03-26T18:41:54.536Z,7.60
2018-03-26T18:44:20.782Z,7.10
2018-03-26T18:46:47.010Z,7.00
2018-03-26T18:49:13.251Z,7.80
2018-03-26T18:51:39.798Z,5.70
2018-03-26T18:54:06.202Z,8.27
2018-03-26T18:56:32.588Z,6.33
2018-03-26T18:58:58.828Z,11.23
2018-03-26T19:01:25.265Z,7.23
2018-03-26T19:03:51.565Z,6.73
2018-03-26T19:06:18.586Z,7.27
2018-03-26T19:08:44.821Z,8.10
2018-03-26T19:11:11.062Z,9.13
2018-03-26T19:13:38.556Z,8.73
2018-03-26T19:16:04.926Z,8.53
2018-03-26T19:18:31.233Z,9.60
2018-03-26T19:20:57.647Z,11.93
2018-03-26T19:23:24.017Z,12.90
2018-03-26T19:25:50.226Z,13.97
2018-03-26T19:28:16.526Z,15.27
2018-03-26T19:30:42.822Z,13.67
2018-03-26T19:33:09.096Z,15.13
2018-03-26T19:35:35.317Z,14.27
2018-03-26T19:38:08.630Z,13.13
2018-03-26T19:40:34.951Z,12.30
2018-03-26T19:43:01.423Z,15.60
2018-03-26T19:45:28.991Z,21.10
2018-03-26T19:47:55.309Z,14.57
2018-03-26T19:50:22.557Z,15.73
2018-03-26T19:52:48.987Z,15.60
2018-03-26T19:55:15.206Z,15.80
2018-03-26T19:57:41.447Z,15.93
2018-03-26T20:00:07.684Z,14.70
2018-03-26T20:02:34.501Z,17.60
2018-03-26T20:05:00.820Z,12.63
2018-03-26T20:07:27.065Z,13.23
2018-03-26T20:09:53.613Z,15.43
2018-03-26T20:12:19.874Z,16.77
2018-03-26T20:14:46.109Z,16.87
2018-03-26T20:17:12.336Z,19.53
2018-03-26T20:19:38.982Z,18.40
2018-03-26T20:22:05.203Z,15.70
2018-03-26T20:24:31.425Z,15.30
2018-03-26T20:26:57.769Z,16.80
2018-03-26T20:29:23.987Z,20.37
2018-03-26T20:31:50.281Z,26.43
2018-03-26T20:34:16.499Z,21.77
2018-03-26T20:36:42.778Z,22.67
2018-03-26T20:39:08.999Z,19.30
2018-03-26T20:41:35.269Z,18.73
2018-03-26T20:44:02.306Z,19.70
2018-03-26T20:46:28.530Z,19.90
2018-03-26T20:48:55.542Z,17.60
2018-03-26T20:51:21.759Z,20.00
2018-03-26T20:53:47.987Z,20.50
2018-03-26T20:56:14.207Z,18.47
2018-03-26T20:58:40.458Z,24.43
2018-03-26T21:01:06.689Z,18.43
2018-03-26T21:03:32.889Z,16.57
2018-03-26T21:05:59.139Z,16.57
2018-03-26T21:08:25.731Z,21.17
2018-03-26T21:10:53.071Z,17.17
2018-03-26T21:13:19.426Z,19.67
2018-03-26T21:15:45.641Z,22.83
2018-03-26T21:18:12.607Z,19.53
2018-03-26T21:20:38.849Z,18.80
2018-03-26T21:23:05.081Z,23.63
2018-03-26T21:25:38.267Z,21.87
2018-03-26T21:28:04.859Z,20.30
2018-03-26T21:30:31.110Z,21.63
2018-03-26T21:32:58.110Z,25.43
2018-03-26T21:35:24.362Z,27.10
2018-03-26T21:37:50.724Z,20.23
2018-03-26T21:40:16.978Z,21.93
2018-03-26T21:42:43.202Z,21.50
2018-03-26T21:45:09.458Z,21.73
2018-03-26T21:47:35.674Z,18.40
2018-03-26T21:50:01.997Z,22.90
2018-03-26T21:52:28.185Z,23.47
2018-03-26T21:54:55.173Z,21.77
2018-03-26T21:57:21.417Z,24.13
2018-03-26T21:59:47.659Z,23.03
2018-03-26T22:02:14.722Z,24.10
2018-03-26T22:04:41.070Z,22.47
2018-03-26T22:07:08.042Z,21.00
2018-03-26T22:09:34.319Z,20.30
2018-03-26T22:12:00.578Z,24.40
2018-03-26T22:14:27.607Z,22.10
2018-03-26T22:16:53.860Z,25.27
2018-03-26T22:19:21.563Z,20.97
2018-03-26T22:21:47.841Z,22.13
2018-03-26T22:24:14.938Z,22.23
2018-03-26T22:26:41.226Z,23.07
2018-03-26T22:29:07.514Z,21.30
2018-03-26T22:31:33.751Z,22.30
2018-03-26T22:33:59.983Z,19.40
2018-03-26T22:36:26.289Z,24.10
2018-03-26T22:38:52.546Z,26.17
2018-03-26T22:41:18.831Z,23.87
2018-03-26T22:43:45.028Z,22.53
2018-03-26T22:46:12.025Z,21.30
2018-03-26T22:48:38.247Z,20.57
2018-03-26T22:51:04.568Z,31.50
2018-03-26T22:53:30.799Z,21.60
2018-03-26T22:55:57.202Z,24.03
2018-03-26T22:58:24.169Z,29.97
2018-03-26T23:00:50.390Z,28.30
2018-03-26T23:03:16.610Z,29.87
2018-03-26T23:05:43.583Z,26.67
2018-03-26T23:08:09.890Z,26.77
2018-03-26T23:10:36.114Z,24.43
2018-03-26T23:13:03.190Z,23.20
2018-03-26T23:15:29.416Z,24.53
2018-03-26T23:17:55.702Z,24.47
2018-03-26T23:20:22.003Z,25.63
2018-03-26T23:22:48.218Z,23.83
2018-03-26T23:25:14.452Z,25.40
2018-03-26T23:27:40.694Z,25.10
2018-03-26T23:30:06.908Z,28.67
2018-03-26T23:32:33.126Z,25.20
2018-03-26T23:34:59.370Z,20.00
2018-03-26T23:37:25.587Z,16.93
2018-03-26T23:39:51.790Z,21.47
2018-03-26T23:42:18.180Z,14.97
2018-03-26T23:44:44.405Z,14.17
2018-03-26T23:47:10.644Z,13.60
2018-03-26T23:49:36.885Z,15.43
2018-03-26T23:52:03.109Z,13.60
2018-03-26T23:54:29.398Z,15.43
2018-03-26T23:56:55.653Z,14.13
2018-03-26T23:59:22.014Z,14.90
